sensor_id;sensor_type;location;lat;lon;timestamp;P1;durP1;ratioP1;P2;durP2;ratioP2
37409;SDS011;23275;48.914;12.566;2023-02-05T00:01:13;8.27;;;4.03;;
37409;SDS011;23275;48.914;12.566;2023-02-05T00:03:38;7.43;;;3.88;;
37409;SDS011;23275;48.914;12.566;2023-02-05T00:06:04;8.02;;;4.13;;
37409;SDS011;23275;48.914;12.566;2023-02-05T00:08:30;8.20;;;4.00;;
37409;SDS011;23275;48.914;12.566;2023-02-05T00:10:55;9.10;;;4.22;;
37409;SDS011;23275;48.914;12.566;2023-02-05T00:13:21;7.28;;;3.72;;
37409;SDS011;23275;48.914;12.566;2023-02-05T00:15:47;7.25;;;4.07;;
37409;SDS011;23275;48.914;12.566;2023-02-05T00:18:12;7.97;;;4.07;;
37409;SDS011;23275;48.914;12.566;2023-02-05T00:20:38;6.47;;;3.78;;
37409;SDS011;23275;48.914;12.566;2023-02-05T00:23:04;9.05;;;4.20;;
37409;SDS011;23275;48.914;12.566;2023-02-05T00:25:30;6.35;;;3.80;;
37409;SDS011;23275;48.914;12.566;2023-02-05T00:27:55;8.00;;;4.00;;
37409;SDS011;23275;48.914;12.566;2023-02-05T00:30:21;11.18;;;4.40;;
37409;SDS011;23275;48.914;12.566;2023-02-05T00:32:47;6.65;;;3.88;;
37409;SDS011;23275;48.914;12.566;2023-02-05T00:35:12;8.57;;;3.95;;
37409;SDS011;23275;48.914;12.566;2023-02-05T00:37:38;8.43;;;3.72;;
37409;SDS011;23275;48.914;12.566;2023-02-05T00:40:03;7.82;;;3.92;;
37409;SDS011;23275;48.914;12.566;2023-02-05T00:42:29;6.85;;;3.35;;
37409;SDS011;23275;48.914;12.566;2023-02-05T00:44:55;5.57;;;3.20;;
37409;SDS011;23275;48.914;12.566;2023-02-05T00:47:21;5.38;;;2.50;;
37409;SDS011;23275;48.914;12.566;2023-02-05T00:49:47;7.07;;;2.92;;
37409;SDS011;23275;48.914;12.566;2023-02-05T00:52:13;6.45;;;2.72;;
37409;SDS011;23275;48.914;12.566;2023-02-05T00:54:38;4.63;;;2.85;;
37409;SDS011;23275;48.914;12.566;2023-02-05T00:57:04;5.78;;;3.10;;
37409;SDS011;23275;48.914;12.566;2023-02-05T00:59:29;7.47;;;3.33;;
37409;SDS011;23275;48.914;12.566;2023-02-05T01:01:55;6.40;;;3.30;;
37409;SDS011;23275;48.914;12.566;2023-02-05T01:04:20;5.82;;;2.70;;
37409;SDS011;23275;48.914;12.566;2023-02-05T01:06:46;6.40;;;2.83;;
37409;SDS011;23275;48.914;12.566;2023-02-05T01:09:11;6.55;;;3.10;;
37409;SDS011;23275;48.914;12.566;2023-02-05T01:11:37;5.57;;;2.60;;
37409;SDS011;23275;48.914;12.566;2023-02-05T01:14:03;6.05;;;2.90;;
37409;SDS011;23275;48.914;12.566;2023-02-05T01:16:28;4.97;;;2.78;;
37409;SDS011;23275;48.914;12.566;2023-02-05T01:18:54;5.93;;;2.95;;
37409;SDS011;23275;48.914;12.566;2023-02-05T01:21:21;5.93;;;2.83;;
37409;SDS011;23275;48.914;12.566;2023-02-05T01:23:48;5.25;;;2.35;;
37409;SDS011;23275;48.914;12.566;2023-02-05T01:26:15;5.85;;;2.70;;
37409;SDS011;23275;48.914;12.566;2023-02-05T01:28:41;6.15;;;3.08;;
37409;SDS011;23275;48.914;12.566;2023-02-05T01:31:07;5.20;;;2.78;;
37409;SDS011;23275;48.914;12.566;2023-02-05T01:33:32;5.10;;;2.92;;
37409;SDS011;23275;48.914;12.566;2023-02-05T01:35:58;6.65;;;3.03;;
37409;SDS011;23275;48.914;12.566;2023-02-05T01:38:23;6.40;;;3.00;;
37409;SDS011;23275;48.914;12.566;2023-02-05T01:40:49;5.35;;;3.00;;
37409;SDS011;23275;48.914;12.566;2023-02-05T01:43:15;5.32;;;2.90;;
37409;SDS011;23275;48.914;12.566;2023-02-05T01:48:34;7.32;;;3.15;;
37409;SDS011;23275;48.914;12.566;2023-02-05T01:51:05;5.53;;;3.03;;
37409;SDS011;23275;48.914;12.566;2023-02-05T01:53:33;8.75;;;3.58;;
37409;SDS011;23275;48.914;12.566;2023-02-05T01:56:02;6.22;;;2.97;;
37409;SDS011;23275;48.914;12.566;2023-02-05T01:58:33;5.22;;;2.97;;
37409;SDS011;23275;48.914;12.566;2023-02-05T02:01:04;6.28;;;3.13;;
37409;SDS011;23275;48.914;12.566;2023-02-05T02:03:30;5.28;;;3.08;;
37409;SDS011;23275;48.914;12.566;2023-02-05T02:05:56;5.40;;;2.97;;
37409;SDS011;23275;48.914;12.566;2023-02-05T02:08:22;5.03;;;3.10;;
37409;SDS011;23275;48.914;12.566;2023-02-05T02:10:49;4.50;;;2.83;;
37409;SDS011;23275;48.914;12.566;2023-02-05T02:13:16;7.40;;;3.40;;
37409;SDS011;23275;48.914;12.566;2023-02-05T02:15:44;5.10;;;3.10;;
37409;SDS011;23275;48.914;12.566;2023-02-05T02:18:11;5.75;;;3.00;;
37409;SDS011;23275;48.914;12.566;2023-02-05T02:29:47;5.53;;;3.00;;
37409;SDS011;23275;48.914;12.566;2023-02-05T02:32:20;5.10;;;2.90;;
37409;SDS011;23275;48.914;12.566;2023-02-05T02:35:03;5.55;;;2.72;;
37409;SDS011;23275;48.914;12.566;2023-02-05T02:43:09;9.02;;;4.13;;
37409;SDS011;23275;48.914;12.566;2023-02-05T02:45:59;6.53;;;4.00;;
37409;SDS011;23275;48.914;12.566;2023-02-05T02:48:29;6.60;;;3.55;;
37409;SDS011;23275;48.914;12.566;2023-02-05T02:50:58;10.33;;;4.83;;
37409;SDS011;23275;48.914;12.566;2023-02-05T02:53:26;8.05;;;4.38;;
37409;SDS011;23275;48.914;12.566;2023-02-05T02:55:54;8.20;;;3.97;;
37409;SDS011;23275;48.914;12.566;2023-02-05T02:58:23;10.45;;;4.40;;
37409;SDS011;23275;48.914;12.566;2023-02-05T03:00:54;6.82;;;4.18;;
37409;SDS011;23275;48.914;12.566;2023-02-05T03:03:21;7.18;;;4.20;;
37409;SDS011;23275;48.914;12.566;2023-02-05T03:05:50;7.22;;;4.05;;
37409;SDS011;23275;48.914;12.566;2023-02-05T03:08:22;8.02;;;4.30;;
37409;SDS011;23275;48.914;12.566;2023-02-05T03:10:54;7.43;;;4.13;;
37409;SDS011;23275;48.914;12.566;2023-02-05T03:13:24;5.57;;;3.47;;
37409;SDS011;23275;48.914;12.566;2023-02-05T03:15:50;7.28;;;3.08;;
37409;SDS011;23275;48.914;12.566;2023-02-05T03:18:16;7.20;;;3.95;;
37409;SDS011;23275;48.914;12.566;2023-02-05T03:20:56;9.73;;;3.20;;
37409;SDS011;23275;48.914;12.566;2023-02-05T03:23:25;6.82;;;3.72;;
37409;SDS011;23275;48.914;12.566;2023-02-05T03:25:52;5.72;;;3.40;;
37409;SDS011;23275;48.914;12.566;2023-02-05T03:28:17;8.00;;;3.22;;
37409;SDS011;23275;48.914;12.566;2023-02-05T03:36:16;5.93;;;3.47;;
37409;SDS011;23275;48.914;12.566;2023-02-05T03:52:25;6.15;;;2.53;;
37409;SDS011;23275;48.914;12.566;2023-02-05T03:55:08;7.00;;;2.60;;
37409;SDS011;23275;48.914;12.566;2023-02-05T03:57:40;5.60;;;2.80;;
37409;SDS011;23275;48.914;12.566;2023-02-05T04:00:11;10.52;;;3.17;;
37409;SDS011;23275;48.914;12.566;2023-02-05T04:02:38;7.25;;;3.95;;
37409;SDS011;23275;48.914;12.566;2023-02-05T04:05:03;6.57;;;3.20;;
37409;SDS011;23275;48.914;12.566;2023-02-05T04:07:29;7.10;;;3.20;;
37409;SDS011;23275;48.914;12.566;2023-02-05T04:09:55;5.07;;;2.90;;
37409;SDS011;23275;48.914;12.566;2023-02-05T04:12:20;13.38;;;6.40;;
37409;SDS011;23275;48.914;12.566;2023-02-05T04:14:46;6.15;;;3.10;;
37409;SDS011;23275;48.914;12.566;2023-02-05T04:17:11;7.03;;;3.08;;
37409;SDS011;23275;48.914;12.566;2023-02-05T04:19:37;6.22;;;3.28;;
37409;SDS011;23275;48.914;12.566;2023-02-05T04:22:03;5.10;;;2.78;;
37409;SDS011;23275;48.914;12.566;2023-02-05T04:24:28;7.80;;;2.72;;
37409;SDS011;23275;48.914;12.566;2023-02-05T04:26:54;4.75;;;2.95;;
37409;SDS011;23275;48.914;12.566;2023-02-05T04:29:20;7.20;;;3.13;;
37409;SDS011;23275;48.914;12.566;2023-02-05T04:31:46;5.00;;;2.47;;
37409;SDS011;23275;48.914;12.566;2023-02-05T04:34:12;5.32;;;2.60;;
37409;SDS011;23275;48.914;12.566;2023-02-05T04:36:37;6.63;;;2.88;;
37409;SDS011;23275;48.914;12.566;2023-02-05T04:39:03;5.80;;;2.92;;
37409;SDS011;23275;48.914;12.566;2023-02-05T04:41:28;4.15;;;2.60;;
37409;SDS011;23275;48.914;12.566;2023-02-05T04:43:54;7.45;;;2.40;;
37409;SDS011;23275;48.914;12.566;2023-02-05T04:46:19;5.32;;;2.78;;
37409;SDS011;23275;48.914;12.566;2023-02-05T04:48:45;4.35;;;2.60;;
37409;SDS011;23275;48.914;12.566;2023-02-05T04:51:11;6.65;;;3.10;;
37409;SDS011;23275;48.914;12.566;2023-02-05T04:53:38;5.82;;;2.58;;
37409;SDS011;23275;48.914;12.566;2023-02-05T04:56:05;5.90;;;3.42;;
37409;SDS011;23275;48.914;12.566;2023-02-05T04:58:35;5.10;;;2.72;;
37409;SDS011;23275;48.914;12.566;2023-02-05T05:01:00;5.47;;;3.00;;
37409;SDS011;23275;48.914;12.566;2023-02-05T05:03:26;7.07;;;3.20;;
37409;SDS011;23275;48.914;12.566;2023-02-05T05:05:52;6.35;;;3.08;;
37409;SDS011;23275;48.914;12.566;2023-02-05T05:08:18;6.18;;;3.30;;
37409;SDS011;23275;48.914;12.566;2023-02-05T05:10:43;7.22;;;2.72;;
37409;SDS011;23275;48.914;12.566;2023-02-05T05:13:09;6.43;;;3.05;;
37409;SDS011;23275;48.914;12.566;2023-02-05T05:15:35;5.03;;;2.55;;
37409;SDS011;23275;48.914;12.566;2023-02-05T05:18:00;7.90;;;3.10;;
37409;SDS011;23275;48.914;12.566;2023-02-05T05:20:26;6.20;;;3.17;;
37409;SDS011;23275;48.914;12.566;2023-02-05T05:22:53;7.60;;;2.97;;
37409;SDS011;23275;48.914;12.566;2023-02-05T05:25:19;12.32;;;2.90;;
37409;SDS011;23275;48.914;12.566;2023-02-05T05:27:45;5.03;;;3.13;;
37409;SDS011;23275;48.914;12.566;2023-02-05T05:30:11;6.15;;;2.97;;
37409;SDS011;23275;48.914;12.566;2023-02-05T05:32:37;5.30;;;3.00;;
37409;SDS011;23275;48.914;12.566;2023-02-05T05:35:02;4.43;;;2.55;;
37409;SDS011;23275;48.914;12.566;2023-02-05T05:37:28;5.25;;;2.80;;
37409;SDS011;23275;48.914;12.566;2023-02-05T05:39:53;4.68;;;2.55;;
37409;SDS011;23275;48.914;12.566;2023-02-05T05:42:37;6.20;;;2.70;;
37409;SDS011;23275;48.914;12.566;2023-02-05T05:45:22;5.50;;;2.75;;
37409;SDS011;23275;48.914;12.566;2023-02-05T05:47:47;4.97;;;2.42;;
37409;SDS011;23275;48.914;12.566;2023-02-05T05:50:13;4.53;;;2.47;;
37409;SDS011;23275;48.914;12.566;2023-02-05T05:52:39;7.53;;;2.75;;
37409;SDS011;23275;48.914;12.566;2023-02-05T05:55:04;4.60;;;2.63;;
37409;SDS011;23275;48.914;12.566;2023-02-05T05:57:30;6.05;;;2.60;;
37409;SDS011;23275;48.914;12.566;2023-02-05T05:59:55;5.32;;;2.83;;
37409;SDS011;23275;48.914;12.566;2023-02-05T06:02:21;4.43;;;2.00;;
37409;SDS011;23275;48.914;12.566;2023-02-05T06:04:47;7.00;;;2.60;;
37409;SDS011;23275;48.914;12.566;2023-02-05T06:07:12;4.35;;;2.38;;
37409;SDS011;23275;48.914;12.566;2023-02-05T06:09:38;4.85;;;2.10;;
37409;SDS011;23275;48.914;12.566;2023-02-05T06:12:03;4.45;;;2.22;;
37409;SDS011;23275;48.914;12.566;2023-02-05T06:14:29;5.22;;;2.20;;
37409;SDS011;23275;48.914;12.566;2023-02-05T06:16:55;4.55;;;2.22;;
37409;SDS011;23275;48.914;12.566;2023-02-05T06:19:21;4.30;;;2.42;;
37409;SDS011;23275;48.914;12.566;2023-02-05T06:21:46;5.53;;;2.47;;
37409;SDS011;23275;48.914;12.566;2023-02-05T06:24:14;7.15;;;2.80;;
37409;SDS011;23275;48.914;12.566;2023-02-05T06:26:40;5.85;;;2.45;;
37409;SDS011;23275;48.914;12.566;2023-02-05T06:29:05;4.82;;;2.50;;
37409;SDS011;23275;48.914;12.566;2023-02-05T06:31:31;5.30;;;2.55;;
37409;SDS011;23275;48.914;12.566;2023-02-05T06:33:57;5.60;;;2.70;;
37409;SDS011;23275;48.914;12.566;2023-02-05T06:36:22;5.13;;;2.28;;
37409;SDS011;23275;48.914;12.566;2023-02-05T06:38:48;4.97;;;2.97;;
37409;SDS011;23275;48.914;12.566;2023-02-05T06:41:14;6.68;;;3.15;;
37409;SDS011;23275;48.914;12.566;2023-02-05T06:43:39;6.32;;;3.25;;
37409;SDS011;23275;48.914;12.566;2023-02-05T06:46:05;6.55;;;3.33;;
37409;SDS011;23275;48.914;12.566;2023-02-05T06:48:31;6.03;;;3.17;;
37409;SDS011;23275;48.914;12.566;2023-02-05T06:50:56;5.47;;;3.38;;
37409;SDS011;23275;48.914;12.566;2023-02-05T06:53:22;8.68;;;3.58;;
37409;SDS011;23275;48.914;12.566;2023-02-05T06:55:47;5.60;;;3.33;;
37409;SDS011;23275;48.914;12.566;2023-02-05T06:58:13;6.07;;;3.25;;
37409;SDS011;23275;48.914;12.566;2023-02-05T07:00:38;7.15;;;3.47;;
37409;SDS011;23275;48.914;12.566;2023-02-05T07:03:04;6.35;;;3.40;;
37409;SDS011;23275;48.914;12.566;2023-02-05T07:05:29;6.95;;;3.40;;
37409;SDS011;23275;48.914;12.566;2023-02-05T07:07:56;6.28;;;3.33;;
37409;SDS011;23275;48.914;12.566;2023-02-05T07:10:23;6.07;;;3.20;;
37409;SDS011;23275;48.914;12.566;2023-02-05T07:12:49;5.85;;;3.58;;
37409;SDS011;23275;48.914;12.566;2023-02-05T07:15:14;5.07;;;2.88;;
37409;SDS011;23275;48.914;12.566;2023-02-05T07:17:40;9.63;;;4.45;;
37409;SDS011;23275;48.914;12.566;2023-02-05T07:20:06;7.35;;;4.22;;
37409;SDS011;23275;48.914;12.566;2023-02-05T07:22:31;9.05;;;4.05;;
37409;SDS011;23275;48.914;12.566;2023-02-05T07:24:57;7.30;;;3.42;;
37409;SDS011;23275;48.914;12.566;2023-02-05T07:27:23;5.95;;;3.42;;
37409;SDS011;23275;48.914;12.566;2023-02-05T07:29:48;6.80;;;4.15;;
37409;SDS011;23275;48.914;12.566;2023-02-05T07:32:14;10.20;;;3.33;;
37409;SDS011;23275;48.914;12.566;2023-02-05T07:34:39;8.45;;;3.75;;
37409;SDS011;23275;48.914;12.566;2023-02-05T07:37:05;7.95;;;3.55;;
37409;SDS011;23275;48.914;12.566;2023-02-05T07:39:30;5.97;;;2.95;;
37409;SDS011;23275;48.914;12.566;2023-02-05T07:41:57;7.05;;;3.58;;
37409;SDS011;23275;48.914;12.566;2023-02-05T07:44:23;7.03;;;3.90;;
37409;SDS011;23275;48.914;12.566;2023-02-05T07:46:49;6.72;;;3.20;;
37409;SDS011;23275;48.914;12.566;2023-02-05T07:49:14;7.13;;;3.67;;
37409;SDS011;23275;48.914;12.566;2023-02-05T07:51:40;5.80;;;3.05;;
37409;SDS011;23275;48.914;12.566;2023-02-05T07:54:06;5.03;;;2.80;;
37409;SDS011;23275;48.914;12.566;2023-02-05T07:56:33;6.30;;;3.10;;
37409;SDS011;23275;48.914;12.566;2023-02-05T07:59:00;4.50;;;2.63;;
37409;SDS011;23275;48.914;12.566;2023-02-05T08:01:26;5.85;;;2.50;;
37409;SDS011;23275;48.914;12.566;2023-02-05T08:03:51;6.35;;;2.90;;
37409;SDS011;23275;48.914;12.566;2023-02-05T08:06:17;5.97;;;2.30;;
37409;SDS011;23275;48.914;12.566;2023-02-05T08:08:42;6.35;;;2.20;;
37409;SDS011;23275;48.914;12.566;2023-02-05T08:11:15;4.57;;;2.72;;
37409;SDS011;23275;48.914;12.566;2023-02-05T08:13:41;6.63;;;2.78;;
37409;SDS011;23275;48.914;12.566;2023-02-05T08:16:07;6.10;;;2.95;;
37409;SDS011;23275;48.914;12.566;2023-02-05T08:18:33;4.13;;;2.38;;
37409;SDS011;23275;48.914;12.566;2023-02-05T08:20:59;4.45;;;2.55;;
37409;SDS011;23275;48.914;12.566;2023-02-05T08:23:24;4.50;;;2.63;;
37409;SDS011;23275;48.914;12.566;2023-02-05T08:25:54;4.68;;;2.65;;
37409;SDS011;23275;48.914;12.566;2023-02-05T08:28:20;7.37;;;2.73;;
37409;SDS011;23275;48.914;12.566;2023-02-05T08:30:46;5.47;;;2.17;;
37409;SDS011;23275;48.914;12.566;2023-02-05T08:33:12;5.60;;;2.65;;
37409;SDS011;23275;48.914;12.566;2023-02-05T08:35:38;4.88;;;2.17;;
37409;SDS011;23275;48.914;12.566;2023-02-05T08:38:03;5.38;;;2.28;;
37409;SDS011;23275;48.914;12.566;2023-02-05T08:40:29;4.28;;;2.17;;
37409;SDS011;23275;48.914;12.566;2023-02-05T08:42:54;5.10;;;2.47;;
37409;SDS011;23275;48.914;12.566;2023-02-05T08:45:22;6.60;;;2.17;;
37409;SDS011;23275;48.914;12.566;2023-02-05T08:47:48;4.25;;;2.30;;
37409;SDS011;23275;48.914;12.566;2023-02-05T08:50:14;4.43;;;2.25;;
37409;SDS011;23275;48.914;12.566;2023-02-05T08:52:40;4.50;;;2.33;;
37409;SDS011;23275;48.914;12.566;2023-02-05T08:55:05;5.72;;;2.80;;
37409;SDS011;23275;48.914;12.566;2023-02-05T08:57:31;5.57;;;2.08;;
37409;SDS011;23275;48.914;12.566;2023-02-05T08:59:57;4.75;;;2.38;;
37409;SDS011;23275;48.914;12.566;2023-02-05T09:02:24;7.15;;;2.10;;
37409;SDS011;23275;48.914;12.566;2023-02-05T09:04:49;3.10;;;1.95;;
37409;SDS011;23275;48.914;12.566;2023-02-05T09:07:15;6.97;;;2.65;;
37409;SDS011;23275;48.914;12.566;2023-02-05T09:09:41;4.22;;;2.30;;
37409;SDS011;23275;48.914;12.566;2023-02-05T09:12:07;5.18;;;2.38;;
37409;SDS011;23275;48.914;12.566;2023-02-05T09:14:34;3.85;;;2.47;;
37409;SDS011;23275;48.914;12.566;2023-02-05T09:17:03;5.00;;;2.00;;
37409;SDS011;23275;48.914;12.566;2023-02-05T09:19:29;5.32;;;2.28;;
37409;SDS011;23275;48.914;12.566;2023-02-05T09:21:58;4.45;;;2.55;;
37409;SDS011;23275;48.914;12.566;2023-02-05T09:24:23;4.22;;;2.47;;
37409;SDS011;23275;48.914;12.566;2023-02-05T09:26:49;4.38;;;2.60;;
37409;SDS011;23275;48.914;12.566;2023-02-05T09:29:16;4.10;;;2.65;;
37409;SDS011;23275;48.914;12.566;2023-02-05T09:31:42;6.50;;;2.83;;
37409;SDS011;23275;48.914;12.566;2023-02-05T09:34:07;4.63;;;2.70;;
37409;SDS011;23275;48.914;12.566;2023-02-05T09:36:33;6.95;;;2.85;;
37409;SDS011;23275;48.914;12.566;2023-02-05T09:38:59;6.40;;;2.70;;
37409;SDS011;23275;48.914;12.566;2023-02-05T09:46:41;5.03;;;3.20;;
37409;SDS011;23275;48.914;12.566;2023-02-05T09:49:20;6.28;;;3.38;;
37409;SDS011;23275;48.914;12.566;2023-02-05T09:51:58;4.22;;;2.35;;
37409;SDS011;23275;48.914;12.566;2023-02-05T09:54:28;4.82;;;2.75;;
37409;SDS011;23275;48.914;12.566;2023-02-05T09:56:59;4.93;;;2.55;;
37409;SDS011;23275;48.914;12.566;2023-02-05T09:59:29;4.72;;;2.78;;
37409;SDS011;23275;48.914;12.566;2023-02-05T10:02:00;5.13;;;3.13;;
37409;SDS011;23275;48.914;12.566;2023-02-05T10:04:46;5.53;;;3.10;;
37409;SDS011;23275;48.914;12.566;2023-02-05T10:07:29;5.07;;;2.70;;
37409;SDS011;23275;48.914;12.566;2023-02-05T10:15:41;3.88;;;2.00;;
37409;SDS011;23275;48.914;12.566;2023-02-05T10:27:34;5.30;;;2.42;;
37409;SDS011;23275;48.914;12.566;2023-02-05T10:30:26;5.88;;;2.47;;
37409;SDS011;23275;48.914;12.566;2023-02-05T10:33:18;5.55;;;2.58;;
37409;SDS011;23275;48.914;12.566;2023-02-05T10:36:04;4.80;;;2.65;;
37409;SDS011;23275;48.914;12.566;2023-02-05T10:38:33;5.40;;;2.33;;
37409;SDS011;23275;48.914;12.566;2023-02-05T10:41:21;4.22;;;2.00;;
37409;SDS011;23275;48.914;12.566;2023-02-05T10:43:49;4.00;;;2.00;;
37409;SDS011;23275;48.914;12.566;2023-02-05T10:46:18;3.17;;;1.70;;
37409;SDS011;23275;48.914;12.566;2023-02-05T10:54:17;3.78;;;1.65;;
37409;SDS011;23275;48.914;12.566;2023-02-05T10:56:50;4.63;;;1.92;;
37409;SDS011;23275;48.914;12.566;2023-02-05T10:59:19;5.10;;;1.73;;
37409;SDS011;23275;48.914;12.566;2023-02-05T11:01:51;4.18;;;2.28;;
37409;SDS011;23275;48.914;12.566;2023-02-05T11:04:21;5.95;;;2.47;;
37409;SDS011;23275;48.914;12.566;2023-02-05T11:07:00;5.53;;;2.60;;
37409;SDS011;23275;48.914;12.566;2023-02-05T11:09:31;4.67;;;2.40;;
37409;SDS011;23275;48.914;12.566;2023-02-05T11:14:35;3.83;;;2.13;;
37409;SDS011;23275;48.914;12.566;2023-02-05T11:17:17;4.97;;;2.03;;
37409;SDS011;23275;48.914;12.566;2023-02-05T11:19:51;7.18;;;2.75;;
37409;SDS011;23275;48.914;12.566;2023-02-05T11:27:34;10.25;;;5.65;;
37409;SDS011;23275;48.914;12.566;2023-02-05T11:32:56;6.55;;;3.50;;
37409;SDS011;23275;48.914;12.566;2023-02-05T11:35:25;4.20;;;3.03;;
37409;SDS011;23275;48.914;12.566;2023-02-05T11:37:59;3.95;;;2.42;;
37409;SDS011;23275;48.914;12.566;2023-02-05T11:40:34;7.10;;;3.08;;
37409;SDS011;23275;48.914;12.566;2023-02-05T11:43:16;4.78;;;3.05;;
37409;SDS011;23275;48.914;12.566;2023-02-05T11:45:50;3.85;;;2.45;;
37409;SDS011;23275;48.914;12.566;2023-02-05T11:48:22;5.22;;;3.28;;
37409;SDS011;23275;48.914;12.566;2023-02-05T11:50:53;4.93;;;2.67;;
37409;SDS011;23275;48.914;12.566;2023-02-05T11:53:19;4.57;;;2.45;;
37409;SDS011;23275;48.914;12.566;2023-02-05T11:55:50;4.65;;;2.55;;
37409;SDS011;23275;48.914;12.566;2023-02-05T12:01:02;4.78;;;2.72;;
37409;SDS011;23275;48.914;12.566;2023-02-05T12:03:56;5.57;;;2.72;;
37409;SDS011;23275;48.914;12.566;2023-02-05T12:06:45;6.20;;;2.78;;
37409;SDS011;23275;48.914;12.566;2023-02-05T12:09:18;5.15;;;3.00;;
37409;SDS011;23275;48.914;12.566;2023-02-05T12:11:57;6.05;;;2.75;;
37409;SDS011;23275;48.914;12.566;2023-02-05T12:17:19;6.22;;;2.45;;
37409;SDS011;23275;48.914;12.566;2023-02-05T12:22:55;5.05;;;2.55;;
37409;SDS011;23275;48.914;12.566;2023-02-05T12:25:50;4.63;;;2.15;;
37409;SDS011;23275;48.914;12.566;2023-02-05T12:34:06;4.90;;;2.78;;
37409;SDS011;23275;48.914;12.566;2023-02-05T12:55:47;4.93;;;2.55;;
37409;SDS011;23275;48.914;12.566;2023-02-05T12:58:34;3.92;;;2.33;;
37409;SDS011;23275;48.914;12.566;2023-02-05T13:01:18;4.93;;;2.38;;
37409;SDS011;23275;48.914;12.566;2023-02-05T13:06:23;4.65;;;2.58;;
37409;SDS011;23275;48.914;12.566;2023-02-05T13:09:20;3.42;;;2.22;;
37409;SDS011;23275;48.914;12.566;2023-02-05T13:11:50;4.68;;;2.70;;
37409;SDS011;23275;48.914;12.566;2023-02-05T13:14:22;4.22;;;2.60;;
37409;SDS011;23275;48.914;12.566;2023-02-05T13:17:12;7.05;;;3.83;;
37409;SDS011;23275;48.914;12.566;2023-02-05T13:19:47;4.45;;;2.42;;
37409;SDS011;23275;48.914;12.566;2023-02-05T13:28:56;5.45;;;3.30;;
37409;SDS011;23275;48.914;12.566;2023-02-05T13:31:04;5.20;;;2.63;;
37409;SDS011;23275;48.914;12.566;2023-02-05T13:33:36;4.88;;;2.20;;
37409;SDS011;23275;48.914;12.566;2023-02-05T13:36:15;7.03;;;2.65;;
37409;SDS011;23275;48.914;12.566;2023-02-05T13:47:25;4.25;;;2.50;;
37409;SDS011;23275;48.914;12.566;2023-02-05T14:01:04;4.95;;;2.60;;
37409;SDS011;23275;48.914;12.566;2023-02-05T14:03:38;5.38;;;2.40;;
37409;SDS011;23275;48.914;12.566;2023-02-05T14:06:13;5.93;;;2.28;;
37409;SDS011;23275;48.914;12.566;2023-02-05T14:08:41;3.92;;;2.20;;
37409;SDS011;23275;48.914;12.566;2023-02-05T14:11:07;5.60;;;2.30;;
37409;SDS011;23275;48.914;12.566;2023-02-05T14:13:34;5.68;;;2.22;;
37409;SDS011;23275;48.914;12.566;2023-02-05T14:29:43;4.07;;;1.70;;
37409;SDS011;23275;48.914;12.566;2023-02-05T14:32:06;2.47;;;1.45;;
37409;SDS011;23275;48.914;12.566;2023-02-05T14:37:00;3.47;;;1.70;;
37409;SDS011;23275;48.914;12.566;2023-02-05T14:39:27;3.42;;;1.20;;
37409;SDS011;23275;48.914;12.566;2023-02-05T14:41:57;4.63;;;1.23;;
37409;SDS011;23275;48.914;12.566;2023-02-05T14:44:27;4.28;;;1.50;;
37409;SDS011;23275;48.914;12.566;2023-02-05T14:47:15;3.08;;;1.65;;
37409;SDS011;23275;48.914;12.566;2023-02-05T14:49:47;4.22;;;1.50;;
37409;SDS011;23275;48.914;12.566;2023-02-05T14:55:03;3.42;;;1.48;;
37409;SDS011;23275;48.914;12.566;2023-02-05T14:57:56;3.65;;;1.67;;
37409;SDS011;23275;48.914;12.566;2023-02-05T15:00:31;3.70;;;1.40;;
37409;SDS011;23275;48.914;12.566;2023-02-05T15:16:28;2.78;;;1.60;;
37409;SDS011;23275;48.914;12.566;2023-02-05T15:18:54;4.20;;;2.08;;
37409;SDS011;23275;48.914;12.566;2023-02-05T15:23:55;6.13;;;2.28;;
37409;SDS011;23275;48.914;12.566;2023-02-05T15:29:13;5.28;;;2.47;;
37409;SDS011;23275;48.914;12.566;2023-02-05T15:31:57;6.07;;;2.88;;
37409;SDS011;23275;48.914;12.566;2023-02-05T15:37:10;4.13;;;2.20;;
37409;SDS011;23275;48.914;12.566;2023-02-05T15:42:25;3.95;;;2.13;;
37409;SDS011;23275;48.914;12.566;2023-02-05T15:44:55;4.72;;;2.28;;
37409;SDS011;23275;48.914;12.566;2023-02-05T15:47:21;6.45;;;2.63;;
37409;SDS011;23275;48.914;12.566;2023-02-05T15:49:49;5.05;;;2.80;;
37409;SDS011;23275;48.914;12.566;2023-02-05T15:52:21;4.60;;;2.47;;
37409;SDS011;23275;48.914;12.566;2023-02-05T15:54:49;8.60;;;2.92;;
37409;SDS011;23275;48.914;12.566;2023-02-05T15:57:22;4.72;;;2.60;;
37409;SDS011;23275;48.914;12.566;2023-02-05T15:59:51;4.72;;;2.67;;
37409;SDS011;23275;48.914;12.566;2023-02-05T16:02:22;4.32;;;2.47;;
37409;SDS011;23275;48.914;12.566;2023-02-05T16:04:57;3.55;;;1.85;;
37409;SDS011;23275;48.914;12.566;2023-02-05T16:07:42;5.70;;;2.15;;
37409;SDS011;23275;48.914;12.566;2023-02-05T16:10:19;5.57;;;2.13;;
37409;SDS011;23275;48.914;12.566;2023-02-05T16:15:30;3.90;;;2.20;;
37409;SDS011;23275;48.914;12.566;2023-02-05T16:18:01;3.05;;;2.10;;
37409;SDS011;23275;48.914;12.566;2023-02-05T16:20:29;4.72;;;2.22;;
37409;SDS011;23275;48.914;12.566;2023-02-05T16:26:00;6.07;;;2.55;;
37409;SDS011;23275;48.914;12.566;2023-02-05T16:28:41;5.82;;;3.00;;
37409;SDS011;23275;48.914;12.566;2023-02-05T16:31:15;5.78;;;2.97;;
37409;SDS011;23275;48.914;12.566;2023-02-05T16:33:50;7.55;;;3.15;;
37409;SDS011;23275;48.914;12.566;2023-02-05T16:36:25;6.38;;;3.60;;
37409;SDS011;23275;48.914;12.566;2023-02-05T16:39:03;9.93;;;5.10;;
37409;SDS011;23275;48.914;12.566;2023-02-05T16:41:40;11.57;;;5.57;;
37409;SDS011;23275;48.914;12.566;2023-02-05T16:44:08;12.23;;;7.05;;
37409;SDS011;23275;48.914;12.566;2023-02-05T16:47:16;14.40;;;7.22;;
37409;SDS011;23275;48.914;12.566;2023-02-05T16:49:44;11.95;;;6.50;;
37409;SDS011;23275;48.914;12.566;2023-02-05T16:54:56;13.45;;;8.02;;
37409;SDS011;23275;48.914;12.566;2023-02-05T16:57:42;16.33;;;7.65;;
37409;SDS011;23275;48.914;12.566;2023-02-05T17:00:21;9.73;;;5.78;;
37409;SDS011;23275;48.914;12.566;2023-02-05T17:02:52;10.48;;;5.90;;
37409;SDS011;23275;48.914;12.566;2023-02-05T17:05:22;11.00;;;6.85;;
37409;SDS011;23275;48.914;12.566;2023-02-05T17:08:00;10.10;;;5.93;;
37409;SDS011;23275;48.914;12.566;2023-02-05T17:10:35;11.00;;;5.80;;
37409;SDS011;23275;48.914;12.566;2023-02-05T17:13:26;9.70;;;6.18;;
37409;SDS011;23275;48.914;12.566;2023-02-05T17:18:56;11.57;;;6.38;;
37409;SDS011;23275;48.914;12.566;2023-02-05T17:21:27;12.55;;;7.13;;
37409;SDS011;23275;48.914;12.566;2023-02-05T17:23:58;12.25;;;6.88;;
37409;SDS011;23275;48.914;12.566;2023-02-05T17:26:27;13.15;;;7.13;;
37409;SDS011;23275;48.914;12.566;2023-02-05T17:28:57;9.57;;;6.70;;
37409;SDS011;23275;48.914;12.566;2023-02-05T17:31:29;11.75;;;6.55;;
37409;SDS011;23275;48.914;12.566;2023-02-05T17:33:59;12.68;;;7.28;;
37409;SDS011;23275;48.914;12.566;2023-02-05T17:36:25;14.90;;;8.50;;
37409;SDS011;23275;48.914;12.566;2023-02-05T17:38:51;18.67;;;9.77;;
37409;SDS011;23275;48.914;12.566;2023-02-05T17:41:26;17.67;;;9.75;;
37409;SDS011;23275;48.914;12.566;2023-02-05T17:44:14;16.33;;;8.75;;
37409;SDS011;23275;48.914;12.566;2023-02-05T17:46:41;19.35;;;9.70;;
37409;SDS011;23275;48.914;12.566;2023-02-05T17:49:07;13.93;;;8.32;;
37409;SDS011;23275;48.914;12.566;2023-02-05T17:51:34;14.73;;;8.30;;
37409;SDS011;23275;48.914;12.566;2023-02-05T17:54:00;14.48;;;8.02;;
37409;SDS011;23275;48.914;12.566;2023-02-05T17:56:25;12.98;;;6.53;;